sensor_id;sensor_type;location;lat;lon;timestamp;pressure;altitude;pressure_sealevel;temperature;humidity
50292;BME280;36190;54.980;73.388;2023-11-21T00:01:18;102563.53;;;-9.84;79.29
50292;BME280;36190;54.980;73.388;2023-11-21T00:03:45;102567.78;;;-9.88;79.27
50292;BME280;36190;54.980;73.388;2023-11-21T00:06:13;102571.16;;;-9.94;79.30
50292;BME280;36190;54.980;73.388;2023-11-21T00:08:40;102570.31;;;-9.94;79.25
50292;BME280;36190;54.980;73.388;2023-11-21T00:11:08;102579.69;;;-9.99;79.27
50292;BME280;36190;54.980;73.388;2023-11-21T00:13:35;102584.72;;;-10.10;79.17
50292;BME280;36190;54.980;73.388;2023-11-21T00:16:04;102597.59;;;-10.16;79.06
50292;BME280;36190;54.980;73.388;2023-11-21T00:18:34;102620.72;;;-10.24;79.03
50292;BME280;36190;54.980;73.388;2023-11-21T00:21:02;102624.94;;;-10.31;79.13
50292;BME280;36190;54.980;73.388;2023-11-21T00:23:30;102628.25;;;-10.38;79.21
50292;BME280;36190;54.980;73.388;2023-11-21T00:25:57;102626.47;;;-10.45;79.26
50292;BME280;36190;54.980;73.388;2023-11-21T00:28:25;102628.09;;;-10.51;79.25
50292;BME280;36190;54.980;73.388;2023-11-21T00:30:53;102622.91;;;-10.54;79.44
50292;BME280;36190;54.980;73.388;2023-11-21T00:33:20;102626.31;;;-10.56;79.47
50292;BME280;36190;54.980;73.388;2023-11-21T00:35:49;102623.69;;;-10.59;79.44
50292;BME280;36190;54.980;73.388;2023-11-21T00:38:17;102633.09;;;-10.63;79.55
50292;BME280;36190;54.980;73.388;2023-11-21T00:40:45;102633.00;;;-10.69;79.48
50292;BME280;36190;54.980;73.388;2023-11-21T00:43:13;102632.09;;;-10.73;79.47
50292;BME280;36190;54.980;73.388;2023-11-21T00:45:41;102641.47;;;-10.77;79.41
50292;BME280;36190;54.980;73.388;2023-11-21T00:48:08;102636.25;;;-10.83;79.43
50292;BME280;36190;54.980;73.388;2023-11-21T00:50:35;102637.84;;;-10.91;79.42
50292;BME280;36190;54.980;73.388;2023-11-21T00:53:04;102639.47;;;-10.96;79.50
50292;BME280;36190;54.980;73.388;2023-11-21T00:55:33;102634.16;;;-11.04;79.52
50292;BME280;36190;54.980;73.388;2023-11-21T00:58:00;102638.50;;;-11.01;79.40
50292;BME280;36190;54.980;73.388;2023-11-21T01:00:29;102635.13;;;-10.99;79.64
50292;BME280;36190;54.980;73.388;2023-11-21T01:02:57;102644.63;;;-10.96;79.69
50292;BME280;36190;54.980;73.388;2023-11-21T01:05:24;102640.34;;;-10.94;79.55
50292;BME280;36190;54.980;73.388;2023-11-21T01:07:52;102641.19;;;-10.95;79.31
50292;BME280;36190;54.980;73.388;2023-11-21T01:10:21;102633.38;;;-11.00;79.41
50292;BME280;36190;54.980;73.388;2023-11-21T01:12:49;102636.72;;;-11.04;79.40
50292;BME280;36190;54.980;73.388;2023-11-21T01:15:16;102633.19;;;-11.11;79.38
50292;BME280;36190;54.980;73.388;2023-11-21T01:17:44;102634.00;;;-11.15;79.25
50292;BME280;36190;54.980;73.388;2023-11-21T01:20:12;102635.63;;;-11.20;79.33
50292;BME280;36190;54.980;73.388;2023-11-21T01:22:39;102638.13;;;-11.25;79.43
50292;BME280;36190;54.980;73.388;2023-11-21T01:25:07;102639.72;;;-11.31;79.35
50292;BME280;36190;54.980;73.388;2023-11-21T01:27:36;102642.22;;;-11.35;79.39
50292;BME280;36190;54.980;73.388;2023-11-21T01:30:04;102652.44;;;-11.39;79.47
50292;BME280;36190;54.980;73.388;2023-11-21T01:32:33;102641.22;;;-11.43;79.48
50292;BME280;36190;54.980;73.388;2023-11-21T01:35:01;102654.91;;;-11.46;79.42
50292;BME280;36190;54.980;73.388;2023-11-21T01:37:28;102657.50;;;-11.44;79.65
50292;BME280;36190;54.980;73.388;2023-11-21T01:39:56;102660.91;;;-11.47;79.78
50292;BME280;36190;54.980;73.388;2023-11-21T01:42:24;102646.31;;;-11.46;79.96
50292;BME280;36190;54.980;73.388;2023-11-21T01:44:56;102636.91;;;-11.44;79.86
50292;BME280;36190;54.980;73.388;2023-11-21T01:47:24;102639.53;;;-11.42;79.86
50292;BME280;36190;54.980;73.388;2023-11-21T01:49:51;102639.53;;;-11.42;79.67
50292;BME280;36190;54.980;73.388;2023-11-21T01:52:19;102634.25;;;-11.49;79.70
50292;BME280;36190;54.980;73.388;2023-11-21T01:54:47;102641.00;;;-11.54;79.71
50292;BME280;36190;54.980;73.388;2023-11-21T01:57:14;102628.00;;;-11.62;79.73
50292;BME280;36190;54.980;73.388;2023-11-21T01:59:42;102620.31;;;-11.60;79.82
50292;BME280;36190;54.980;73.388;2023-11-21T02:02:12;102636.69;;;-11.56;79.94
50292;BME280;36190;54.980;73.388;2023-11-21T02:04:40;102635.03;;;-11.51;79.85
50292;BME280;36190;54.980;73.388;2023-11-21T02:07:07;102629.13;;;-11.46;80.11
50292;BME280;36190;54.980;73.388;2023-11-21T02:09:36;102623.25;;;-11.40;79.93
50292;BME280;36190;54.980;73.388;2023-11-21T02:12:07;102627.59;;;-11.36;80.05
50292;BME280;36190;54.980;73.388;2023-11-21T02:14:36;102616.53;;;-11.31;79.95
50292;BME280;36190;54.980;73.388;2023-11-21T02:17:04;102626.84;;;-11.30;79.77
50292;BME280;36190;54.980;73.388;2023-11-21T02:19:33;102623.41;;;-11.30;79.71
50292;BME280;36190;54.980;73.388;2023-11-21T02:22:01;102631.19;;;-11.27;79.74
50292;BME280;36190;54.980;73.388;2023-11-21T02:24:33;102632.97;;;-11.25;79.53
50292;BME280;36190;54.980;73.388;2023-11-21T02:27:01;102637.16;;;-11.30;79.63
50292;BME280;36190;54.980;73.388;2023-11-21T02:29:28;102647.38;;;-11.35;79.62
50292;BME280;36190;54.980;73.388;2023-11-21T02:31:56;102660.22;;;-11.38;79.57
50292;BME280;36190;54.980;73.388;2023-11-21T02:34:24;102653.34;;;-11.39;79.47
50292;BME280;36190;54.980;73.388;2023-11-21T02:36:51;102652.44;;;-11.39;79.47
50292;BME280;36190;54.980;73.388;2023-11-21T02:39:19;102656.75;;;-11.38;79.51
50292;BME280;36190;54.980;73.388;2023-11-21T02:41:49;102659.25;;;-11.43;79.58
50292;BME280;36190;54.980;73.388;2023-11-21T02:44:17;102655.91;;;-11.39;79.52
50292;BME280;36190;54.980;73.388;2023-11-21T02:46:44;102647.34;;;-11.38;79.45
50292;BME280;36190;54.980;73.388;2023-11-21T02:49:12;102642.22;;;-11.35;79.51
50292;BME280;36190;54.980;73.388;2023-11-21T02:51:40;102632.78;;;-11.34;79.44
50292;BME280;36190;54.980;73.388;2023-11-21T02:54:08;102626.72;;;-11.38;79.27
50292;BME280;36190;54.980;73.388;2023-11-21T02:56:35;102633.47;;;-11.43;79.31
50292;BME280;36190;54.980;73.388;2023-11-21T02:59:04;102640.28;;;-11.48;79.30
50292;BME280;36190;54.980;73.388;2023-11-21T03:01:32;102640.16;;;-11.54;79.22
50292;BME280;36190;54.980;73.388;2023-11-21T03:04:00;102640.19;;;-11.51;79.37
50292;BME280;36190;54.980;73.388;2023-11-21T03:06:27;102645.44;;;-11.48;79.26
50292;BME280;36190;54.980;73.388;2023-11-21T03:08:55;102649.03;;;-11.38;79.61
50292;BME280;36190;54.980;73.388;2023-11-21T03:11:22;102648.25;;;-11.34;79.43
50292;BME280;36190;54.980;73.388;2023-11-21T03:13:49;102637.16;;;-11.30;79.42
50292;BME280;36190;54.980;73.388;2023-11-21T03:16:19;102625.19;;;-11.26;79.67
50292;BME280;36190;54.980;73.388;2023-11-21T03:18:46;102627.06;;;-11.16;79.47
50292;BME280;36190;54.980;73.388;2023-11-21T03:21:14;102624.59;;;-11.11;79.45
50292;BME280;36190;54.980;73.388;2023-11-21T03:23:41;102622.09;;;-11.07;79.37
50292;BME280;36190;54.980;73.388;2023-11-21T03:26:12;102625.50;;;-11.08;79.27
50292;BME280;36190;54.980;73.388;2023-11-21T03:28:40;102634.97;;;-11.08;79.22
50292;BME280;36190;54.980;73.388;2023-11-21T03:31:07;102628.88;;;-11.12;79.17
50292;BME280;36190;54.980;73.388;2023-11-21T03:33:38;102638.38;;;-11.09;79.07
50292;BME280;36190;54.980;73.388;2023-11-21T03:36:06;102638.50;;;-11.01;79.23
50292;BME280;36190;54.980;73.388;2023-11-21T03:38:33;102641.22;;;-10.92;79.40
50292;BME280;36190;54.980;73.388;2023-11-21T03:41:01;102642.22;;;-10.85;79.27
50292;BME280;36190;54.980;73.388;2023-11-21T03:43:28;102652.69;;;-10.76;79.09
50292;BME280;36190;54.980;73.388;2023-11-21T03:45:56;102648.47;;;-10.69;79.06
50292;BME280;36190;54.980;73.388;2023-11-21T03:48:23;102659.69;;;-10.69;78.87
50292;BME280;36190;54.980;73.388;2023-11-21T03:50:52;102666.53;;;-10.69;78.78
50292;BME280;36190;54.980;73.388;2023-11-21T03:53:20;102657.03;;;-10.72;78.64
50292;BME280;36190;54.980;73.388;2023-11-21T03:55:48;102670.97;;;-10.62;78.74
50292;BME280;36190;54.980;73.388;2023-11-21T03:58:15;102660.75;;;-10.56;78.74
50292;BME280;36190;54.980;73.388;2023-11-21T04:00:42;102667.72;;;-10.48;78.78
50292;BME280;36190;54.980;73.388;2023-11-21T04:03:10;102655.75;;;-10.43;78.64
50292;BME280;36190;54.980;73.388;2023-11-21T04:05:38;102648.91;;;-10.38;78.60
50292;BME280;36190;54.980;73.388;2023-11-21T04:08:08;102650.66;;;-10.37;78.50
50292;BME280;36190;54.980;73.388;2023-11-21T04:10:35;102649.78;;;-10.36;78.38
50292;BME280;36190;54.980;73.388;2023-11-21T04:13:05;102643.84;;;-10.32;78.36
50292;BME280;36190;54.980;73.388;2023-11-21T04:15:33;102647.34;;;-10.28;78.20
50292;BME280;36190;54.980;73.388;2023-11-21T04:18:00;102638.78;;;-10.26;78.32
50292;BME280;36190;54.980;73.388;2023-11-21T04:20:28;102637.13;;;-10.20;78.16
50292;BME280;36190;54.980;73.388;2023-11-21T04:22:56;102636.28;;;-10.18;78.01
50292;BME280;36190;54.980;73.388;2023-11-21T04:25:25;102634.63;;;-10.14;77.82
50292;BME280;36190;54.980;73.388;2023-11-21T04:27:54;102639.84;;;-10.10;77.77
50292;BME280;36190;54.980;73.388;2023-11-21T04:30:21;102633.88;;;-10.04;77.63
50292;BME280;36190;54.980;73.388;2023-11-21T04:32:49;102645.13;;;-10.00;77.36
50292;BME280;36190;54.980;73.388;2023-11-21T04:35:16;102635.69;;;-9.97;77.16
50292;BME280;36190;54.980;73.388;2023-11-21T04:37:44;102613.41;;;-9.88;77.30
50292;BME280;36190;54.980;73.388;2023-11-21T04:40:12;102612.66;;;-9.78;77.08
50292;BME280;36190;54.980;73.388;2023-11-21T04:42:41;102611.06;;;-9.68;76.60
50292;BME280;36190;54.980;73.388;2023-11-21T04:45:09;102617.19;;;-9.60;76.54
50292;BME280;36190;54.980;73.388;2023-11-21T04:47:37;102604.34;;;-9.52;76.31
50292;BME280;36190;54.980;73.388;2023-11-21T04:50:06;102587.13;;;-9.48;76.18
50292;BME280;36190;54.980;73.388;2023-11-21T04:52:33;102568.19;;;-9.46;75.90
50292;BME280;36190;54.980;73.388;2023-11-21T04:55:01;102578.59;;;-9.40;75.76
50292;BME280;36190;54.980;73.388;2023-11-21T04:57:28;102585.59;;;-9.29;75.73
50292;BME280;36190;54.980;73.388;2023-11-21T04:59:58;102590.81;;;-9.26;75.50
50292;BME280;36190;54.980;73.388;2023-11-21T05:02:25;102611.50;;;-9.23;75.38
50292;BME280;36190;54.980;73.388;2023-11-21T05:04:53;102620.16;;;-9.19;75.13
50292;BME280;36190;54.980;73.388;2023-11-21T05:07:22;102620.22;;;-9.15;74.99
50292;BME280;36190;54.980;73.388;2023-11-21T05:09:49;102617.69;;;-9.08;74.70
50292;BME280;36190;54.980;73.388;2023-11-21T05:12:17;102607.41;;;-8.96;74.78
50292;BME280;36190;54.980;73.388;2023-11-21T05:14:44;102623.84;;;-8.94;74.45
50292;BME280;36190;54.980;73.388;2023-11-21T05:17:14;102635.00;;;-8.98;74.32
50292;BME280;36190;54.980;73.388;2023-11-21T05:19:41;102624.59;;;-9.07;74.10
50292;BME280;36190;54.980;73.388;2023-11-21T05:22:11;102626.16;;;-9.22;74.01
50292;BME280;36190;54.980;73.388;2023-11-21T05:24:38;102623.47;;;-9.36;73.85
50292;BME280;36190;54.980;73.388;2023-11-21T05:27:06;102617.31;;;-9.46;73.80
50292;BME280;36190;54.980;73.388;2023-11-21T05:29:35;102620.75;;;-9.47;74.21
50292;BME280;36190;54.980;73.388;2023-11-21T05:32:04;102612.16;;;-9.46;74.04
50292;BME280;36190;54.980;73.388;2023-11-21T05:34:33;102615.50;;;-9.53;73.82
50292;BME280;36190;54.980;73.388;2023-11-21T05:37:00;102610.22;;;-9.65;73.71
50292;BME280;36190;54.980;73.388;2023-11-21T05:39:28;102587.72;;;-9.76;73.90
50292;BME280;36190;54.980;73.388;2023-11-21T05:41:55;102599.66;;;-9.87;73.90
50292;BME280;36190;54.980;73.388;2023-11-21T05:44:23;102616.81;;;-9.91;73.81
50292;BME280;36190;54.980;73.388;2023-11-21T05:46:51;102615.16;;;-9.86;74.19
50292;BME280;36190;54.980;73.388;2023-11-21T05:49:18;102623.94;;;-9.73;74.11
50292;BME280;36190;54.980;73.388;2023-11-21T05:51:49;102630.91;;;-9.65;74.03
50292;BME280;36190;54.980;73.388;2023-11-21T05:54:19;102627.47;;;-9.64;73.81
50292;BME280;36190;54.980;73.388;2023-11-21T05:56:47;102625.75;;;-9.65;73.85
50292;BME280;36190;54.980;73.388;2023-11-21T05:59:15;102623.13;;;-9.67;73.73
50292;BME280;36190;54.980;73.388;2023-11-21T06:01:43;102615.31;;;-9.75;73.60
50292;BME280;36190;54.980;73.388;2023-11-21T06:04:11;102611.81;;;-9.77;73.52
50292;BME280;36190;54.980;73.388;2023-11-21T06:06:39;102605.00;;;-9.72;73.62
50292;BME280;36190;54.980;73.388;2023-11-21T06:09:08;102617.22;;;-9.55;73.47
50292;BME280;36190;54.980;73.388;2023-11-21T06:11:37;102620.09;;;-9.27;73.71
50292;BME280;36190;54.980;73.388;2023-11-21T06:14:05;102615.94;;;-9.09;73.53
50292;BME280;36190;54.980;73.388;2023-11-21T06:16:33;102619.47;;;-8.98;73.01
50292;BME280;36190;54.980;73.388;2023-11-21T06:19:01;102607.47;;;-8.90;72.82
50292;BME280;36190;54.980;73.388;2023-11-21T06:21:29;102606.66;;;-8.84;72.66
50292;BME280;36190;54.980;73.388;2023-11-21T06:23:56;102585.06;;;-8.88;72.49
50292;BME280;36190;54.980;73.388;2023-11-21T06:26:25;102602.41;;;-8.74;72.31
50292;BME280;36190;54.980;73.388;2023-11-21T06:28:54;102583.44;;;-8.73;72.33
50292;BME280;36190;54.980;73.388;2023-11-21T06:31:22;102586.03;;;-8.76;72.14
50292;BME280;36190;54.980;73.388;2023-11-21T06:33:50;102596.34;;;-8.81;72.07
50292;BME280;36190;54.980;73.388;2023-11-21T06:36:18;102588.66;;;-8.67;71.99
50292;BME280;36190;54.980;73.388;2023-11-21T06:38:46;102581.00;;;-8.47;72.24
50292;BME280;36190;54.980;73.388;2023-11-21T06:41:13;102572.47;;;-8.25;71.90
50292;BME280;36190;54.980;73.388;2023-11-21T06:43:43;102565.66;;;-8.05;71.58
50292;BME280;36190;54.980;73.388;2023-11-21T06:46:12;102561.38;;;-7.96;71.19
50292;BME280;36190;54.980;73.388;2023-11-21T06:48:42;102547.59;;;-7.80;70.93
50292;BME280;36190;54.980;73.388;2023-11-21T06:51:10;102558.88;;;-7.53;70.74
50292;BME280;36190;54.980;73.388;2023-11-21T06:53:38;102554.53;;;-7.57;70.22
50292;BME280;36190;54.980;73.388;2023-11-21T06:56:15;102559.72;;;-7.51;70.07
50292;BME280;36190;54.980;73.388;2023-11-21T06:58:45;102558.88;;;-7.33;70.40
50292;BME280;36190;54.980;73.388;2023-11-21T07:01:13;102559.75;;;-7.16;70.50
50292;BME280;36190;54.980;73.388;2023-11-21T07:03:42;102558.03;;;-7.21;70.13
50292;BME280;36190;54.980;73.388;2023-11-21T07:06:11;102546.78;;;-7.15;70.19
50292;BME280;36190;54.980;73.388;2023-11-21T07:08:38;102526.00;;;-7.16;70.36
50292;BME280;36190;54.980;73.388;2023-11-21T07:11:06;102532.06;;;-7.21;70.36
50292;BME280;36190;54.980;73.388;2023-11-21T07:13:33;102527.75;;;-7.23;70.26
50292;BME280;36190;54.980;73.388;2023-11-21T07:16:02;102528.63;;;-7.29;70.73
50292;BME280;36190;54.980;73.388;2023-11-21T07:18:30;102534.66;;;-7.22;70.98
50292;BME280;36190;54.980;73.388;2023-11-21T07:20:58;102531.19;;;-7.10;70.94
50292;BME280;36190;54.980;73.388;2023-11-21T07:23:25;102549.34;;;-7.07;70.85
50292;BME280;36190;54.980;73.388;2023-11-21T07:25:53;102536.41;;;-7.02;70.86
50292;BME280;36190;54.980;73.388;2023-11-21T07:28:20;102545.88;;;-7.00;70.71
50292;BME280;36190;54.980;73.388;2023-11-21T07:30:48;102537.22;;;-6.99;70.82
50292;BME280;36190;54.980;73.388;2023-11-21T07:33:17;102524.25;;;-6.97;70.48
50292;BME280;36190;54.980;73.388;2023-11-21T07:35:44;102522.56;;;-6.97;70.63
50292;BME280;36190;54.980;73.388;2023-11-21T07:38:12;102519.94;;;-7.00;70.75
50292;BME280;36190;54.980;73.388;2023-11-21T07:40:40;102508.69;;;-6.97;70.94
50292;BME280;36190;54.980;73.388;2023-11-21T07:43:07;102500.03;;;-6.96;70.86
50292;BME280;36190;54.980;73.388;2023-11-21T07:45:36;102508.69;;;-6.97;70.97
50292;BME280;36190;54.980;73.388;2023-11-21T07:48:04;102506.09;;;-6.99;71.04
50292;BME280;36190;54.980;73.388;2023-11-21T07:50:34;102506.09;;;-6.89;71.12
50292;BME280;36190;54.980;73.388;2023-11-21T07:53:01;102514.72;;;-6.84;71.04
50292;BME280;36190;54.980;73.388;2023-11-21T07:55:31;102523.38;;;-6.85;71.04
50292;BME280;36190;54.980;73.388;2023-11-21T07:57:59;102538.09;;;-6.83;71.11
50292;BME280;36190;54.980;73.388;2023-11-21T08:00:26;102526.84;;;-6.85;71.00
50292;BME280;36190;54.980;73.388;2023-11-21T08:02:56;102505.22;;;-6.85;70.97
50292;BME280;36190;54.980;73.388;2023-11-21T08:05:23;102487.91;;;-6.93;70.95
50292;BME280;36190;54.980;73.388;2023-11-21T08:07:52;102475.84;;;-7.09;70.78
50292;BME280;36190;54.980;73.388;2023-11-21T08:10:20;102471.56;;;-7.23;71.10
50292;BME280;36190;54.980;73.388;2023-11-21T08:12:48;102480.22;;;-7.30;71.39
50292;BME280;36190;54.980;73.388;2023-11-21T08:15:16;102481.06;;;-7.31;71.51
50292;BME280;36190;54.980;73.388;2023-11-21T08:17:44;102475.88;;;-7.29;71.56
50292;BME280;36190;54.980;73.388;2023-11-21T08:20:12;102480.19;;;-7.21;71.57
50292;BME280;36190;54.980;73.388;2023-11-21T08:22:41;102487.09;;;-7.15;71.62
50292;BME280;36190;54.980;73.388;2023-11-21T08:25:11;102475.84;;;-7.12;71.31
50292;BME280;36190;54.980;73.388;2023-11-21T08:27:39;102464.59;;;-7.18;71.29
50292;BME280;36190;54.980;73.388;2023-11-21T08:30:07;102458.56;;;-7.21;71.33
50292;BME280;36190;54.980;73.388;2023-11-21T08:32:34;102469.81;;;-7.21;71.80
50292;BME280;36190;54.980;73.388;2023-11-21T08:35:02;102483.63;;;-7.12;71.81
50292;BME280;36190;54.980;73.388;2023-11-21T08:37:30;102479.28;;;-7.06;71.71
50292;BME280;36190;54.980;73.388;2023-11-21T08:40:03;102475.81;;;-6.98;71.49
50292;BME280;36190;54.980;73.388;2023-11-21T08:42:36;102471.47;;;-6.88;71.29
50292;BME280;36190;54.980;73.388;2023-11-21T08:45:05;102478.34;;;-6.69;71.31
50292;BME280;36190;54.980;73.388;2023-11-21T08:47:34;102473.03;;;-6.44;71.12
50292;BME280;36190;54.980;73.388;2023-11-21T08:50:02;102470.34;;;-6.24;70.80
50292;BME280;36190;54.980;73.388;2023-11-21T08:52:31;102461.66;;;-6.18;70.35
50292;BME280;36190;54.980;73.388;2023-11-21T08:54:59;102462.56;;;-6.22;70.08
50292;BME280;36190;54.980;73.388;2023-11-21T08:57:33;102462.53;;;-6.16;70.02
50292;BME280;36190;54.980;73.388;2023-11-21T09:00:03;102462.53;;;-6.19;70.16
50292;BME280;36190;54.980;73.388;2023-11-21T09:02:33;102447.81;;;-6.18;70.07
50292;BME280;36190;54.980;73.388;2023-11-21T09:05:01;102432.16;;;-6.11;70.03
50292;BME280;36190;54.980;73.388;2023-11-21T09:07:29;102411.44;;;-6.22;69.74
50292;BME280;36190;54.980;73.388;2023-11-21T09:09:56;102420.19;;;-6.37;69.88
50292;BME280;36190;54.980;73.388;2023-11-21T09:12:24;102423.72;;;-6.47;70.34
50292;BME280;36190;54.980;73.388;2023-11-21T09:14:52;102424.56;;;-6.45;70.56
50292;BME280;36190;54.980;73.388;2023-11-21T09:17:21;102399.47;;;-6.47;70.50
50292;BME280;36190;54.980;73.388;2023-11-21T09:19:48;102401.25;;;-6.60;70.58
50292;BME280;36190;54.980;73.388;2023-11-21T09:22:17;102403.94;;;-6.76;70.91
50292;BME280;36190;54.980;73.388;2023-11-21T09:24:45;102405.72;;;-6.86;71.22
50292;BME280;36190;54.980;73.388;2023-11-21T09:27:12;102404.88;;;-6.94;71.44
50292;BME280;36190;54.980;73.388;2023-11-21T09:29:41;102400.56;;;-6.97;71.55
50292;BME280;36190;54.980;73.388;2023-11-21T09:32:08;102396.28;;;-7.09;71.50
50292;BME280;36190;54.980;73.388;2023-11-21T09:34:39;102407.56;;;-7.27;71.83
50292;BME280;36190;54.980;73.388;2023-11-21T09:37:07;102401.53;;;-7.43;71.79
50292;BME280;36190;54.980;73.388;2023-11-21T09:39:35;102387.72;;;-7.57;72.41
50292;BME280;36190;54.980;73.388;2023-11-21T09:42:08;102387.72;;;-7.64;72.58
50292;BME280;36190;54.980;73.388;2023-11-21T09:44:45;102392.06;;;-7.70;72.93
50292;BME280;36190;54.980;73.388;2023-11-21T09:47:15;102401.56;;;-7.76;73.18
50292;BME280;36190;54.980;73.388;2023-11-21T09:49:47;102402.44;;;-7.70;73.40
50292;BME280;36190;54.980;73.388;2023-11-21T09:52:21;102400.69;;;-7.65;73.43
50292;BME280;36190;54.980;73.388;2023-11-21T09:54:51;102411.06;;;-7.53;73.41
50292;BME280;36190;54.980;73.388;2023-11-21T09:57:20;102412.75;;;-7.49;73.17
50292;BME280;36190;54.980;73.388;2023-11-21T09:59:51;102427.47;;;-7.44;73.23
50292;BME280;36190;54.980;73.388;2023-11-21T10:02:23;102439.59;;;-7.47;73.21
50292;BME280;36190;54.980;73.388;2023-11-21T10:04:53;102438.72;;;-7.55;73.21
50292;BME280;36190;54.980;73.388;2023-11-21T10:07:21;102437.88;;;-7.63;73.37
50292;BME280;36190;54.980;73.388;2023-11-21T10:09:50;102419.69;;;-7.76;73.50
50292;BME280;36190;54.980;73.388;2023-11-21T10:12:18;102408.47;;;-7.87;73.65
50292;BME280;36190;54.980;73.388;2023-11-21T10:14:49;102410.19;;;-8.02;73.91
50292;BME280;36190;54.980;73.388;2023-11-21T10:17:18;102421.44;;;-7.96;74.27
50292;BME280;36190;54.980;73.388;2023-11-21T10:19:47;102424.88;;;-7.97;74.44
50292;BME280;36190;54.980;73.388;2023-11-21T10:22:16;102407.59;;;-7.98;74.75
50292;BME280;36190;54.980;73.388;2023-11-21T10:24:45;102383.41;;;-8.04;74.64
50292;BME280;36190;54.980;73.388;2023-11-21T10:27:13;102369.59;;;-8.12;74.96
50292;BME280;36190;54.980;73.388;2023-11-21T10:29:40;102394.63;;;-8.16;74.76
50292;BME280;36190;54.980;73.388;2023-11-21T10:32:08;102393.75;;;-8.22;75.27
50292;BME280;36190;54.980;73.388;2023-11-21T10:34:35;102391.16;;;-8.24;75.62
50292;BME280;36190;54.980;73.388;2023-11-21T10:37:11;102396.34;;;-8.22;75.88
50292;BME280;36190;54.980;73.388;2023-11-21T10:39:40;102398.91;;;-8.22;76.07
50292;BME280;36190;54.980;73.388;2023-11-21T10:42:09;102392.88;;;-8.24;76.17
50292;BME280;36190;54.980;73.388;2023-11-21T10:44:37;102399.78;;;-8.28;76.15
50292;BME280;36190;54.980;73.388;2023-11-21T10:47:05;102395.44;;;-8.31;76.45
50292;BME280;36190;54.980;73.388;2023-11-21T10:49:32;102390.28;;;-8.31;76.63
50292;BME280;36190;54.980;73.388;2023-11-21T10:52:00;102367.84;;;-8.33;76.84
50292;BME280;36190;54.980;73.388;2023-11-21T10:54:28;102364.38;;;-8.31;76.89
50292;BME280;36190;54.980;73.388;2023-11-21T10:56:59;102364.41;;;-8.27;77.24
50292;BME280;36190;54.980;73.388;2023-11-21T10:59:29;102353.19;;;-8.25;77.35
50292;BME280;36190;54.980;73.388;2023-11-21T11:01:58;102360.94;;;-8.23;77.47
50292;BME280;36190;54.980;73.388;2023-11-21T11:04:28;102344.53;;;-8.27;77.38
50292;BME280;36190;54.980;73.388;2023-11-21T11:06:57;102338.47;;;-8.31;77.47
50292;BME280;36190;54.980;73.388;2023-11-21T11:09:31;102322.97;;;-8.37;77.92
50292;BME280;36190;54.980;73.388;2023-11-21T11:12:01;102338.47;;;-8.31;78.03
50292;BME280;36190;54.980;73.388;2023-11-21T11:14:30;102339.34;;;-8.27;78.20
50292;BME280;36190;54.980;73.388;2023-11-21T11:16:58;102331.59;;;-8.25;78.16
50292;BME280;36190;54.980;73.388;2023-11-21T11:19:27;102327.25;;;-8.28;78.26
50292;BME280;36190;54.980;73.388;2023-11-21T11:22:03;102296.19;;;-8.39;78.31
50292;BME280;36190;54.980;73.388;2023-11-21T11:24:53;102307.41;;;-8.27;78.62
50292;BME280;36190;54.980;73.388;2023-11-21T11:27:34;102298.78;;;-8.30;78.78
50292;BME280;36190;54.980;73.388;2023-11-21T11:30:13;102288.41;;;-8.33;78.94
50292;BME280;36190;54.980;73.388;2023-11-21T11:32:53;102284.97;;;-8.32;79.00
50292;BME280;36190;54.980;73.388;2023-11-21T11:35:29;102265.09;;;-8.39;79.04
50292;BME280;36190;54.980;73.388;2023-11-21T11:38:01;102285.84;;;-8.31;79.18
50292;BME280;36190;54.980;73.388;2023-11-21T11:40:39;102265.13;;;-8.31;79.36
50292;BME280;36190;54.980;73.388;2023-11-21T11:43:13;102231.47;;;-8.59;79.58
50292;BME280;36190;54.980;73.388;2023-11-21T11:45:51;102264.25;;;-8.38;79.56
50292;BME280;36190;54.980;73.388;2023-11-21T11:48:21;102250.44;;;-8.31;79.67
50292;BME280;36190;54.980;73.388;2023-11-21T11:51:02;102246.97;;;-8.28;79.78
50292;BME280;36190;54.980;73.388;2023-11-21T11:53:35;102243.53;;;-8.29;79.86
50292;BME280;36190;54.980;73.388;2023-11-21T11:56:22;102234.91;;;-8.27;79.99
50292;BME280;36190;54.980;73.388;2023-11-21T11:58:53;102236.63;;;-8.28;80.02
50292;BME280;36190;54.980;73.388;2023-11-21T12:01:23;102234.91;;;-8.27;80.14
50292;BME280;36190;54.980;73.388;2023-11-21T12:04:25;102248.72;;;-8.25;80.31
50292;BME280;36190;54.980;73.388;2023-11-21T12:07:00;102243.53;;;-8.25;80.22
50292;BME280;36190;54.980;73.388;2023-11-21T12:09:30;102242.69;;;-8.21;80.39
50292;BME280;36190;54.980;73.388;2023-11-21T12:11:59;102232.28;;;-8.20;80.44
50292;BME280;36190;54.980;73.388;2023-11-21T12:14:29;102222.81;;;-8.19;80.35
50292;BME280;36190;54.980;73.388;2023-11-21T12:16:57;102226.25;;;-8.17;80.32
50292;BME280;36190;54.980;73.388;2023-11-21T12:19:25;102235.75;;;-8.16;80.42
50292;BME280;36190;54.980;73.388;2023-11-21T12:21:53;102256.47;;;-8.16;80.45
50292;BME280;36190;54.980;73.388;2023-11-21T12:24:21;102259.06;;;-8.13;80.57
50292;BME280;36190;54.980;73.388;2023-11-21T12:26:49;102278.03;;;-8.09;80.68
50292;BME280;36190;54.980;73.388;2023-11-21T12:29:17;102271.13;;;-8.06;80.63
50292;BME280;36190;54.980;73.388;2023-11-21T12:31:49;102262.50;;;-8.02;80.87
50292;BME280;36190;54.980;73.388;2023-11-21T12:34:17;102262.50;;;-7.98;80.81
50292;BME280;36190;54.980;73.388;2023-11-21T12:36:44;102258.16;;;-7.95;80.89
50292;BME280;36190;54.980;73.388;2023-11-21T12:39:12;102261.63;;;-7.91;80.67
50292;BME280;36190;54.980;73.388;2023-11-21T12:41:40;102263.38;;;-7.92;80.77
50292;BME280;36190;54.980;73.388;2023-11-21T12:44:11;102274.56;;;-7.91;80.74